New Munich, Minnesota
Current Conditions -  °F | °C
As of 11:52 AM on Saturday 25 Oct 2014 (Local Time) from KD39 Reporting Station
Overcast Overcast  
Wind Chill: 56°   Ceiling: 12000
Heat Index: 56°   Visibility: 10mi
Dew Point: 32°   Wind: 16mph
Humidity: 41%   Direction: 290°WNW
Pressure: 30.08"   Gusts: 24mph
Location:  45.63°N, 94.75°W
Report Text: KD39 251652Z AUTO 29014G21KT 10SM OVC120 13/00 A3008 RMK AO2 T01330002
Loading
Personal Weather Stations






























Interactive Weather Map
Tropical Storm Tracking
New forecast layout! Learn more

10-Day Weather Forecast

Advertisements
Track Severe Weather on mobile